Lancaster, Ohio
Current Conditions -  °F | °C
As of 11:26 AM on Sunday 25 Jan 2015 (Local Time) from KLHQ Reporting Station
Haze Haze  
Wind Chill: 32°   Ceiling: 2800
Heat Index: 37°   Visibility: 3mi
Dew Point: 33°   Wind: 6mph
Humidity: 86%   Direction: 140°SE
Pressure: 29.78"   Gusts: NA
Location:  39.71°N, 82.6°W
Report Text: KLHQ 251626Z AUTO 14005KT 3SM UP BR OVC028 03/01 A2978 RMK AO2 UPB1558 P0000 T00280006
Loading
Personal Weather Stations






























Interactive Weather Map New forecast layout! Learn more

10-Day Weather Forecast

Advertisements
Track Severe Weather on mobile